Sioux Lookout, Canada
Current Conditions -  °F | °C
As of 9:00 AM on Monday 24 Nov 2014 (Local Time) from CYXL Reporting Station
Light Snow Light Snow  
Wind Chill: -2°   Ceiling: 1600
Heat Index: 10°   Visibility: 3mi
Dew Point:   Wind: 9mph
Humidity: 85%   Direction: 360°N
Pressure: 29.51"   Gusts: 17mph
Location:  50.1°N, 91.92°W
Report Text: CYXL 241500Z 36008G15KT 3SM -SN OVC016 M12/M14 A2951 RMK SC8 SLP020
Loading
Personal Weather Stations






























Interactive Weather Map New forecast layout! Learn more

10-Day Weather Forecast

Advertisements
Track Severe Weather on mobile